Time;durP1;ratioP1;P1;durP2;ratioP2;P2;SDS_P1;SDS_P2;PMS_P1;PMS_P2;Temp;Humidity;BMP_temperature;BMP_pressure;BME280_temperature;BME280_humidity;BME280_pressure;Samples;Min_cycle;Max_cycle;Signal;HPM_P1;HPM_P2
2021/03/15 00:00:47;;;;;;;35.83;5.40;;;10.00;99.90;;;;;;5009482;28;20074;-86
2021/03/15 00:03:14;;;;;;;34.03;5.75;;;10.00;99.90;;;;;;5005950;28;20556;-88
2021/03/15 00:05:56;;;;;;;29.38;4.60;;;10.00;99.90;;;;;;5009561;28;20107;-85
2021/03/15 00:08:22;;;;;;;23.95;4.55;;;10.00;99.90;;;;;;5011428;28;20044;-86
2021/03/15 00:10:49;;;;;;;24.33;5.13;;;10.00;99.90;;;;;;5012704;28;20476;-86
2021/03/15 00:13:17;;;;;;;22.02;4.63;;;10.00;99.90;;;;;;5009861;28;20096;-86
2021/03/15 00:15:44;;;;;;;28.45;5.03;;;10.00;99.90;;;;;;5031895;28;20099;-88
2021/03/15 00:18:11;;;;;;;32.65;4.95;;;10.00;99.90;;;;;;5025208;28;20538;-88
2021/03/15 00:20:38;;;;;;;31.83;4.88;;;9.90;99.90;;;;;;5008864;28;20042;-86
2021/03/15 00:23:05;;;;;;;18.40;4.18;;;10.00;99.90;;;;;;5011427;28;20491;-86
2021/03/15 00:25:32;;;;;;;29.70;4.53;;;10.00;99.90;;;;;;5012831;28;20046;-87
2021/03/15 00:27:59;;;;;;;18.52;4.10;;;10.00;99.90;;;;;;5010394;28;20057;-86
2021/03/15 00:30:25;;;;;;;20.45;4.22;;;9.90;99.90;;;;;;5012641;28;20061;-86
2021/03/15 00:32:53;;;;;;;23.58;4.10;;;10.00;99.90;;;;;;5012639;28;20049;-88
2021/03/15 00:35:20;;;;;;;22.63;4.00;;;10.00;99.90;;;;;;5012493;28;20060;-87
2021/03/15 00:37:48;;;;;;;26.77;4.47;;;9.90;99.90;;;;;;5011947;28;20052;-87
2021/03/15 00:40:17;;;;;;;21.55;4.32;;;9.90;99.90;;;;;;5013225;28;20311;-87
2021/03/15 00:42:46;;;;;;;21.75;3.72;;;9.90;99.90;;;;;;5022105;28;20433;-88
2021/03/15 00:45:14;;;;;;;19.70;4.82;;;10.00;99.90;;;;;;5031707;28;20102;-88
2021/03/15 00:47:41;;;;;;;28.00;4.72;;;9.90;99.90;;;;;;5031732;28;20052;-88
2021/03/15 00:50:16;;;;;;;24.30;4.47;;;9.90;99.90;;;;;;5015228;28;20041;-88
2021/03/15 00:52:42;;;;;;;28.42;4.10;;;10.00;99.90;;;;;;5016289;28;20107;-88
2021/03/15 00:55:09;;;;;;;29.70;4.50;;;10.00;99.90;;;;;;5012470;28;20100;-88
2021/03/15 00:57:36;;;;;;;19.20;3.67;;;10.00;99.90;;;;;;5033721;28;20041;-88
2021/03/15 01:00:05;;;;;;;21.25;3.85;;;10.00;99.90;;;;;;5014318;28;20061;-87
2021/03/15 01:02:33;;;;;;;26.80;4.60;;;10.00;99.90;;;;;;5013133;28;20382;-88
2021/03/15 01:05:00;;;;;;;23.83;4.13;;;10.00;99.90;;;;;;5023903;28;20045;-88
2021/03/15 01:07:26;;;;;;;20.15;4.00;;;10.00;99.90;;;;;;5021940;28;20051;-87
2021/03/15 01:09:53;;;;;;;29.13;4.68;;;10.00;99.90;;;;;;5015114;28;20052;-88
2021/03/15 01:12:20;;;;;;;25.10;4.28;;;10.00;99.90;;;;;;5013764;28;20050;-88
2021/03/15 01:14:47;;;;;;;29.48;3.85;;;10.00;99.90;;;;;;5015543;28;20042;-88
2021/03/15 01:17:14;;;;;;;24.30;3.95;;;10.00;99.90;;;;;;5014256;28;20049;-89
2021/03/15 01:19:41;;;;;;;30.67;4.25;;;10.00;99.90;;;;;;5019373;28;20111;-88
2021/03/15 01:22:10;;;;;;;23.80;4.25;;;10.00;99.90;;;;;;5012158;28;20480;-88
2021/03/15 01:24:37;;;;;;;25.23;4.20;;;10.00;99.90;;;;;;5012650;28;20038;-88
2021/03/15 01:27:04;;;;;;;27.10;3.67;;;10.00;99.90;;;;;;5011265;28;20053;-88
2021/03/15 01:29:31;;;;;;;34.67;4.35;;;10.00;99.90;;;;;;5007138;28;20049;-88
2021/03/15 01:31:58;;;;;;;25.75;4.40;;;10.00;99.90;;;;;;5011221;28;20053;-88
2021/03/15 01:34:25;;;;;;;22.23;3.33;;;10.10;99.90;;;;;;5018022;28;20045;-88
2021/03/15 01:37:03;;;;;;;19.15;3.55;;;10.00;99.90;;;;;;5012279;28;20096;-88
2021/03/15 01:39:31;;;;;;;24.20;4.00;;;10.10;99.90;;;;;;5012918;28;20120;-88
2021/03/15 01:41:59;;;;;;;23.83;3.40;;;10.00;99.90;;;;;;5014333;28;20142;-88
2021/03/15 01:44:26;;;;;;;19.45;4.43;;;10.10;99.90;;;;;;5014680;28;20361;-88
2021/03/15 01:46:53;;;;;;;25.70;4.13;;;10.10;99.90;;;;;;5012079;28;20045;-88
2021/03/15 01:49:20;;;;;;;24.90;4.57;;;10.10;99.90;;;;;;5012803;28;20052;-88
2021/03/15 01:51:48;;;;;;;21.40;4.20;;;10.10;99.90;;;;;;5026485;28;20044;-88
2021/03/15 01:54:17;;;;;;;24.10;4.93;;;10.10;99.90;;;;;;5007562;28;20038;-88
2021/03/15 01:56:44;;;;;;;24.23;3.58;;;10.10;99.90;;;;;;5009617;28;20042;-87
2021/03/15 01:59:14;;;;;;;24.90;4.72;;;10.10;99.90;;;;;;5009338;28;20502;-88
2021/03/15 02:01:48;;;;;;;27.00;4.03;;;10.10;99.90;;;;;;5010352;28;20041;-88
2021/03/15 02:04:16;;;;;;;29.63;4.63;;;10.10;99.90;;;;;;5013734;28;20049;-88
2021/03/15 02:06:44;;;;;;;26.30;4.25;;;10.10;99.90;;;;;;5012654;28;20092;-88
2021/03/15 02:09:11;;;;;;;29.23;3.55;;;10.10;99.90;;;;;;5001424;28;20054;-88
2021/03/15 02:11:50;;;;;;;28.77;4.25;;;10.10;99.90;;;;;;5008351;28;20048;-88
2021/03/15 02:14:43;;;;;;;23.25;3.67;;;10.10;99.90;;;;;;5008103;28;20045;-88
2021/03/15 02:17:23;;;;;;;26.63;4.75;;;10.10;99.90;;;;;;5011745;28;20053;-88
2021/03/15 02:20:19;;;;;;;25.95;3.78;;;10.10;99.90;;;;;;5012746;28;20056;-88
2021/03/15 02:23:19;;;;;;;33.00;4.68;;;10.10;99.90;;;;;;5012729;28;20045;-88
2021/03/15 02:26:07;;;;;;;26.55;4.20;;;10.10;99.90;;;;;;5019338;28;20395;-88
2021/03/15 02:29:19;;;;;;;24.63;3.63;;;10.10;99.90;;;;;;5012555;28;20488;-88
2021/03/15 02:32:06;;;;;;;20.98;3.70;;;10.10;99.90;;;;;;4986812;28;20297;-87
2021/03/15 02:34:50;;;;;;;21.65;3.38;;;10.00;99.90;;;;;;5013636;28;20046;-88
2021/03/15 02:37:20;;;;;;;23.20;4.00;;;10.10;99.90;;;;;;5010250;28;20135;-88
2021/03/15 02:39:51;;;;;;;26.15;3.30;;;10.00;99.90;;;;;;5011699;28;20041;-88
2021/03/15 02:42:20;;;;;;;17.02;3.08;;;10.00;99.90;;;;;;5010623;28;20099;-88
2021/03/15 02:44:51;;;;;;;26.05;3.90;;;10.00;99.90;;;;;;5013839;28;20133;-88
2021/03/15 02:47:23;;;;;;;31.17;4.20;;;10.10;99.90;;;;;;5013899;28;20132;-88
2021/03/15 02:49:59;;;;;;;18.58;3.40;;;10.10;99.90;;;;;;5014829;28;20053;-88
2021/03/15 02:52:27;;;;;;;24.45;3.90;;;10.00;99.90;;;;;;5013585;28;20038;-88
2021/03/15 02:54:55;;;;;;;21.30;3.63;;;10.00;99.90;;;;;;5012588;28;20053;-88
2021/03/15 02:57:23;;;;;;;17.45;2.65;;;10.10;99.90;;;;;;5004088;28;20050;-88
2021/03/15 02:59:54;;;;;;;23.20;3.20;;;10.00;99.90;;;;;;5014571;28;20056;-88
2021/03/15 03:02:22;;;;;;;22.00;3.38;;;10.00;99.90;;;;;;5007238;28;20289;-88
2021/03/15 03:04:50;;;;;;;15.63;2.60;;;10.00;99.90;;;;;;4999667;28;20050;-87
2021/03/15 03:07:17;;;;;;;18.80;3.17;;;9.90;99.90;;;;;;5011241;28;20141;-88
2021/03/15 03:09:45;;;;;;;26.10;4.18;;;10.00;99.90;;;;;;5010577;28;20042;-88
2021/03/15 03:12:13;;;;;;;18.13;3.28;;;10.00;99.90;;;;;;5011246;28;20046;-88
2021/03/15 03:14:43;;;;;;;25.52;3.75;;;9.90;99.90;;;;;;5013989;28;20041;-88
2021/03/15 03:17:10;;;;;;;;;;;9.90;99.90;;;;;;5008330;28;20050;-86
2021/03/15 03:19:39;;;;;;;19.10;3.13;;;9.90;99.90;;;;;;5001737;28;19921;-88
2021/03/15 03:22:08;;;;;;;17.23;3.13;;;9.90;99.90;;;;;;5010721;28;20045;-88
2021/03/15 03:24:35;;;;;;;13.50;2.70;;;9.90;99.90;;;;;;5009296;28;20487;-87
2021/03/15 03:27:04;;;;;;;22.55;2.70;;;9.90;99.90;;;;;;5009411;28;20478;-87
2021/03/15 03:29:32;;;;;;;18.45;2.42;;;9.80;99.90;;;;;;5005119;28;20109;-87
2021/03/15 03:32:01;;;;;;;18.05;2.90;;;9.90;99.90;;;;;;5012446;28;20049;-87
2021/03/15 03:34:27;;;;;;;14.57;2.25;;;9.90;99.90;;;;;;5013181;28;20512;-88
2021/03/15 03:36:54;;;;;;;15.07;2.55;;;9.80;99.90;;;;;;5011040;28;20369;-88
2021/03/15 03:39:21;;;;;;;12.50;1.88;;;9.80;99.90;;;;;;5011908;28;20052;-87
2021/03/15 03:41:48;;;;;;;14.00;1.80;;;9.80;99.90;;;;;;5012395;28;20045;-88
2021/03/15 03:44:14;;;;;;;17.48;2.00;;;9.80;99.90;;;;;;5012070;28;20132;-88
2021/03/15 03:46:41;;;;;;;14.13;2.35;;;9.80;99.90;;;;;;5013059;28;20072;-87
2021/03/15 03:49:10;;;;;;;12.93;2.58;;;9.80;99.90;;;;;;5011541;28;20382;-87
2021/03/15 03:51:54;;;;;;;18.10;2.75;;;9.80;99.90;;;;;;5010857;28;20104;-87
2021/03/15 03:54:29;;;;;;;14.35;1.98;;;9.80;99.90;;;;;;5011806;28;20514;-87
2021/03/15 03:57:05;;;;;;;17.63;3.40;;;9.80;99.90;;;;;;5012468;28;20408;-87
2021/03/15 03:59:37;;;;;;;13.90;2.63;;;9.80;99.90;;;;;;5011480;28;20041;-84
2021/03/15 04:02:05;;;;;;;22.33;2.67;;;9.80;99.90;;;;;;5013184;28;20041;-85
2021/03/15 04:04:37;;;;;;;20.67;3.20;;;9.80;99.90;;;;;;5013504;28;20037;-85
2021/03/15 04:07:06;;;;;;;16.58;2.30;;;9.80;99.90;;;;;;5010292;28;20471;-85
2021/03/15 04:09:33;;;;;;;;;;;9.80;99.90;;;;;;4995095;28;20042;-85
2021/03/15 04:12:12;;;;;;;11.65;2.42;;;9.80;99.90;;;;;;5013331;28;19928;-85
2021/03/15 04:14:48;;;;;;;16.45;2.90;;;9.80;99.90;;;;;;4996067;28;20060;-86
2021/03/15 04:17:19;;;;;;;15.57;2.00;;;9.70;99.90;;;;;;4997366;28;20541;-86
2021/03/15 04:19:52;;;;;;;16.63;2.53;;;9.70;99.90;;;;;;4988729;28;20050;-87
2021/03/15 04:22:22;;;;;;;14.77;2.20;;;9.70;99.90;;;;;;4991820;28;20045;-86
2021/03/15 04:24:50;;;;;;;15.43;2.80;;;9.60;99.90;;;;;;4993108;28;20541;-86
2021/03/15 04:27:17;;;;;;;19.13;2.60;;;9.60;99.90;;;;;;4993052;28;20054;-86
2021/03/15 04:29:45;;;;;;;19.85;3.38;;;9.60;99.90;;;;;;4984050;28;20053;-86
2021/03/15 04:32:12;;;;;;;17.23;2.20;;;9.60;99.90;;;;;;4995125;28;20038;-86
2021/03/15 04:34:40;;;;;;;11.52;1.95;;;9.50;99.90;;;;;;4992677;28;20046;-86
2021/03/15 04:37:08;;;;;;;11.02;2.08;;;9.50;99.90;;;;;;4990606;28;20104;-86
2021/03/15 04:39:36;;;;;;;13.40;2.07;;;9.40;99.90;;;;;;4999185;28;20041;-86
2021/03/15 04:42:04;;;;;;;12.45;2.03;;;9.40;99.90;;;;;;4993648;28;20049;-86
2021/03/15 04:44:33;;;;;;;14.63;2.15;;;9.40;99.90;;;;;;4990289;28;20387;-86
2021/03/15 04:47:01;;;;;;;15.68;2.17;;;9.40;99.90;;;;;;4991036;28;20064;-86
2021/03/15 04:49:31;;;;;;;10.68;1.75;;;9.30;99.90;;;;;;4991925;28;20507;-86
2021/03/15 04:51:59;;;;;;;12.45;2.90;;;9.30;99.90;;;;;;4990981;28;20104;-87
2021/03/15 04:54:26;;;;;;;16.25;2.30;;;9.30;99.90;;;;;;4991600;28;20042;-85
2021/03/15 04:56:56;;;;;;;10.77;2.85;;;9.30;99.90;;;;;;4985209;28;20499;-86
2021/03/15 04:59:23;;;;;;;13.10;2.53;;;9.30;99.90;;;;;;4984137;28;20046;-86
2021/03/15 05:01:51;;;;;;;22.00;2.38;;;9.30;99.90;;;;;;4991708;28;20046;-86
2021/03/15 05:04:22;;;;;;;20.30;2.65;;;9.30;99.90;;;;;;4992737;28;20046;-86
2021/03/15 05:06:50;;;;;;;18.80;2.83;;;9.30;99.90;;;;;;4990912;28;20046;-85
2021/03/15 05:09:17;;;;;;;17.48;2.53;;;9.30;99.90;;;;;;5005398;28;20053;-86
2021/03/15 05:11:44;;;;;;;20.63;3.03;;;9.30;99.90;;;;;;5000985;28;20046;-86
2021/03/15 05:14:11;;;;;;;13.75;2.53;;;9.30;99.90;;;;;;5002707;28;20037;-86
2021/03/15 05:16:40;;;;;;;19.95;2.53;;;9.30;99.90;;;;;;4991894;28;20049;-86
2021/03/15 05:19:11;;;;;;;19.48;2.72;;;9.30;99.90;;;;;;4986777;28;20487;-86
2021/03/15 05:21:44;;;;;;;17.88;3.10;;;9.30;99.90;;;;;;4995574;28;20053;-86
2021/03/15 05:24:12;;;;;;;18.58;2.85;;;9.30;99.90;;;;;;4995294;28;20058;-86
2021/03/15 05:26:40;;;;;;;14.10;2.30;;;9.30;99.90;;;;;;4999758;28;20064;-86
2021/03/15 05:29:13;;;;;;;10.07;2.03;;;9.30;99.90;;;;;;4999650;28;20168;-86
2021/03/15 05:31:44;;;;;;;12.35;2.20;;;9.30;99.90;;;;;;4995784;28;20069;-86
2021/03/15 05:34:13;;;;;;;16.20;2.40;;;9.30;99.90;;;;;;4978397;28;20136;-86
2021/03/15 05:36:42;;;;;;;11.43;2.20;;;9.30;99.90;;;;;;5005008;28;20053;-86
2021/03/15 05:39:09;;;;;;;12.73;1.63;;;9.30;99.90;;;;;;5009345;28;20046;-86
2021/03/15 05:41:52;;;;;;;15.43;2.85;;;9.30;99.90;;;;;;4993172;28;20052;-85
2021/03/15 05:44:49;;;;;;;12.60;2.38;;;9.40;99.90;;;;;;5008530;28;20085;-86
2021/03/15 05:47:15;;;;;;;16.52;2.15;;;9.40;99.90;;;;;;4992439;28;20042;-86
2021/03/15 05:50:04;;;;;;;15.23;2.60;;;9.40;99.90;;;;;;4996080;28;20130;-86
2021/03/15 05:53:01;;;;;;;14.55;2.67;;;9.40;99.90;;;;;;5009923;28;20046;-86
2021/03/15 05:55:40;;;;;;;10.85;2.13;;;9.40;99.90;;;;;;4982591;28;20049;-86
2021/03/15 05:58:44;;;;;;;12.45;1.63;;;9.40;99.90;;;;;;4992788;28;20053;-88
2021/03/15 06:01:39;;;;;;;12.07;2.00;;;9.40;99.90;;;;;;4983266;28;20137;-86
2021/03/15 06:04:12;;;;;;;10.82;1.75;;;9.40;99.90;;;;;;4930075;29;20142;-86
2021/03/15 06:06:39;;;;;;;10.10;2.30;;;9.40;99.90;;;;;;4934356;29;20047;-86
2021/03/15 06:09:06;;;;;;;13.48;2.40;;;9.40;99.90;;;;;;4931989;28;20059;-86
2021/03/15 06:11:43;;;;;;;14.68;2.42;;;9.40;99.90;;;;;;4929659;29;20044;-87
2021/03/15 06:14:14;;;;;;;12.88;2.58;;;9.50;99.90;;;;;;4915905;29;20048;-88
2021/03/15 06:16:42;;;;;;;19.00;2.47;;;9.50;99.90;;;;;;4921149;29;20047;-85
2021/03/15 06:19:12;;;;;;;18.00;2.90;;;9.50;99.90;;;;;;4919679;29;20059;-85
2021/03/15 06:21:38;;;;;;;;;;;9.50;99.90;;;;;;4930127;29;20048;-85
2021/03/15 06:24:05;;;;;;;19.17;2.58;;;9.50;99.90;;;;;;4916883;29;19954;-85
2021/03/15 06:26:33;;;;;;;16.05;2.85;;;9.50;99.90;;;;;;4916561;29;20044;-87
2021/03/15 06:29:01;;;;;;;18.00;2.83;;;9.50;99.90;;;;;;4916634;29;20051;-85
2021/03/15 06:31:30;;;;;;;14.63;2.33;;;9.50;99.90;;;;;;4930110;29;20901;-85
2021/03/15 06:33:58;;;;;;;21.33;3.65;;;9.50;99.90;;;;;;4934534;28;20066;-85
2021/03/15 06:36:27;;;;;;;13.50;1.93;;;9.50;99.90;;;;;;4917682;29;20102;-86
2021/03/15 06:38:56;;;;;;;13.35;1.90;;;9.50;99.90;;;;;;4915335;29;20573;-85
2021/03/15 06:41:24;;;;;;;15.68;2.30;;;9.50;99.90;;;;;;4959907;28;20399;-85
2021/03/15 06:43:50;;;;;;;11.30;2.07;;;9.50;99.90;;;;;;4983835;28;20115;-86
2021/03/15 06:46:19;;;;;;;7.88;1.63;;;9.60;99.90;;;;;;5009760;28;20061;-86
2021/03/15 06:48:46;;;;;;;12.85;2.05;;;9.60;99.90;;;;;;4992213;28;20046;-85
2021/03/15 06:51:14;;;;;;;12.45;2.10;;;9.60;99.90;;;;;;4990717;28;20061;-86
2021/03/15 06:53:43;;;;;;;15.45;2.33;;;9.60;99.90;;;;;;4990381;28;20042;-86
2021/03/15 06:56:11;;;;;;;9.03;2.53;;;9.60;99.90;;;;;;4990519;28;20045;-86
2021/03/15 06:58:50;;;;;;;13.13;2.33;;;9.70;99.90;;;;;;4993683;28;20715;-86
2021/03/15 07:01:27;;;;;;;15.23;2.28;;;9.60;99.90;;;;;;4984492;28;20056;-86
2021/03/15 07:04:08;;;;;;;12.73;2.13;;;9.60;99.90;;;;;;5009000;28;20532;-86
2021/03/15 07:06:41;;;;;;;11.55;2.25;;;9.70;99.90;;;;;;4990464;28;20046;-86
2021/03/15 07:09:12;;;;;;;18.98;2.90;;;9.70;99.90;;;;;;4996089;28;20083;-86
2021/03/15 07:11:39;;;;;;;20.75;2.30;;;9.70;99.90;;;;;;4991877;28;20113;-86
2021/03/15 07:14:06;;;;;;;18.90;2.83;;;9.70;99.90;;;;;;4992199;28;20068;-85
2021/03/15 07:16:34;;;;;;;11.05;2.47;;;9.70;99.90;;;;;;4991595;28;20073;-86
2021/03/15 07:19:03;;;;;;;20.37;2.77;;;9.70;99.90;;;;;;4993076;28;20058;-87
2021/03/15 07:21:37;;;;;;;19.60;2.75;;;9.70;99.90;;;;;;4993715;28;20281;-85
2021/03/15 07:24:09;;;;;;;15.55;3.08;;;9.80;99.90;;;;;;4991221;28;20038;-84
2021/03/15 07:26:43;;;;;;;12.40;2.63;;;9.80;99.90;;;;;;4990256;28;20505;-85
2021/03/15 07:29:15;;;;;;;14.32;2.08;;;9.80;99.90;;;;;;4993044;28;20050;-85
2021/03/15 07:31:47;;;;;;;16.58;2.28;;;9.70;99.90;;;;;;4991354;28;20066;-85
2021/03/15 07:34:16;;;;;;;17.15;2.97;;;9.80;99.90;;;;;;4987921;28;20046;-85
2021/03/15 07:36:57;;;;;;;14.57;3.10;;;9.80;99.90;;;;;;4994392;28;20042;-85
2021/03/15 07:39:28;;;;;;;17.85;2.78;;;9.80;99.90;;;;;;4993749;28;20140;-85
2021/03/15 07:41:57;;;;;;;14.65;3.00;;;9.80;99.90;;;;;;4992899;28;20050;-85
2021/03/15 07:44:34;;;;;;;14.63;2.67;;;9.80;99.90;;;;;;4991649;28;20081;-85
2021/03/15 07:47:05;;;;;;;15.63;2.45;;;9.80;99.90;;;;;;4988704;28;20050;-85
2021/03/15 07:49:36;;;;;;;12.55;2.38;;;9.80;99.90;;;;;;4997047;28;20070;-85
2021/03/15 07:52:04;;;;;;;11.40;2.25;;;9.90;99.90;;;;;;4990637;28;20057;-85
2021/03/15 07:54:36;;;;;;;15.10;2.42;;;9.90;99.90;;;;;;5009457;28;20069;-85
2021/03/15 07:57:16;;;;;;;13.75;2.42;;;9.90;99.90;;;;;;4992745;28;20100;-86
2021/03/15 07:59:46;;;;;;;15.27;2.85;;;9.90;99.90;;;;;;4991834;28;20042;-85
2021/03/15 08:02:17;;;;;;;;;;;9.90;99.90;;;;;;4993221;28;20049;-85
2021/03/15 08:04:45;;;;;;;19.25;2.55;;;9.90;99.90;;;;;;4993487;28;19944;-85
2021/03/15 08:07:13;;;;;;;11.35;2.55;;;9.90;99.90;;;;;;4991957;28;20039;-84
2021/03/15 08:09:45;;;;;;;10.70;2.15;;;10.00;99.90;;;;;;5005750;28;20041;-85
2021/03/15 08:12:12;;;;;;;10.70;1.77;;;10.00;99.90;;;;;;5010701;28;20051;-85
2021/03/15 08:14:44;;;;;;;11.65;2.08;;;10.00;99.90;;;;;;5009501;28;20049;-85
2021/03/15 08:17:16;;;;;;;10.00;2.05;;;10.00;99.90;;;;;;5012549;28;20062;-84
2021/03/15 08:19:48;;;;;;;11.60;1.75;;;10.00;99.90;;;;;;5012416;28;20069;-85
2021/03/15 08:22:26;;;;;;;7.18;1.50;;;10.10;99.90;;;;;;5012148;28;20046;-84
2021/03/15 08:24:58;;;;;;;9.27;1.92;;;10.10;99.90;;;;;;5011041;28;20058;-84
2021/03/15 08:27:38;;;;;;;12.25;1.50;;;10.10;99.90;;;;;;5018031;28;20072;-84
2021/03/15 08:30:28;;;;;;;7.72;1.50;;;10.10;99.90;;;;;;5006059;28;20054;-85
2021/03/15 08:32:55;;;;;;;13.77;1.73;;;10.20;99.90;;;;;;5014155;28;20060;-84
2021/03/15 08:35:22;;;;;;;6.85;1.60;;;10.20;99.90;;;;;;5017295;28;20069;-85
2021/03/15 08:37:58;;;;;;;6.78;1.90;;;10.20;99.90;;;;;;5012272;28;20103;-85
2021/03/15 08:40:45;;;;;;;8.90;1.83;;;10.20;99.90;;;;;;5012098;28;20060;-85
2021/03/15 08:43:21;;;;;;;8.18;1.50;;;10.30;99.90;;;;;;5018242;28;20056;-85
2021/03/15 08:45:49;;;;;;;7.28;1.40;;;10.30;99.90;;;;;;5013551;28;20061;-85
2021/03/15 08:48:17;;;;;;;16.65;2.38;;;10.30;99.90;;;;;;5031882;28;20094;-85
2021/03/15 08:50:48;;;;;;;7.88;1.60;;;10.40;99.90;;;;;;5016066;28;20065;-84
2021/03/15 08:53:36;;;;;;;10.88;1.92;;;10.40;99.90;;;;;;5012055;28;20037;-85
2021/03/15 08:56:19;;;;;;;10.23;2.13;;;10.40;99.90;;;;;;5011399;28;20049;-84
2021/03/15 08:58:47;;;;;;;10.43;1.50;;;10.40;99.90;;;;;;5016159;28;20132;-85
2021/03/15 09:01:18;;;;;;;10.55;2.25;;;10.40;99.90;;;;;;5007641;28;20096;-85
2021/03/15 09:03:48;;;;;;;8.13;1.50;;;10.30;99.90;;;;;;5016661;28;20132;-85
2021/03/15 09:06:40;;;;;;;11.35;1.75;;;10.30;99.90;;;;;;5013673;28;20053;-84
2021/03/15 09:09:26;;;;;;;9.68;1.63;;;10.40;99.90;;;;;;5001313;28;20054;-85
2021/03/15 09:12:03;;;;;;;11.50;1.67;;;10.40;99.90;;;;;;5028986;28;20433;-84
2021/03/15 09:14:35;;;;;;;13.27;2.38;;;10.40;99.90;;;;;;5009117;28;20042;-85
2021/03/15 09:17:14;;;;;;;12.02;2.80;;;10.40;99.90;;;;;;5010770;28;20108;-84
2021/03/15 09:19:47;;;;;;;10.40;1.90;;;10.50;99.90;;;;;;5013073;28;20128;-84
2021/03/15 09:22:22;;;;;;;11.27;2.03;;;10.50;99.90;;;;;;5000625;28;20061;-84
2021/03/15 09:24:49;;;;;;;14.52;2.50;;;10.60;99.90;;;;;;5013501;28;20046;-84
2021/03/15 09:27:31;;;;;;;16.75;2.75;;;10.60;99.90;;;;;;5015153;28;20060;-84
2021/03/15 09:30:05;;;;;;;8.40;2.08;;;10.70;99.90;;;;;;5027792;28;20049;-84
2021/03/15 09:32:34;;;;;;;13.63;2.10;;;10.70;99.90;;;;;;5027222;28;20041;-85
2021/03/15 09:35:13;;;;;;;18.63;2.90;;;10.70;99.90;;;;;;5011455;28;20420;-85
2021/03/15 09:37:41;;;;;;;9.55;1.98;;;10.80;99.90;;;;;;5013171;28;20042;-85
2021/03/15 09:40:12;;;;;;;9.73;1.70;;;10.80;99.90;;;;;;5012959;28;20119;-85
2021/03/15 09:42:43;;;;;;;12.32;1.63;;;10.80;99.90;;;;;;5015498;28;20284;-85
2021/03/15 09:45:13;;;;;;;8.50;2.00;;;10.80;99.90;;;;;;5008145;28;20042;-85
2021/03/15 09:47:40;;;;;;;16.38;2.58;;;10.90;99.90;;;;;;5010552;28;20061;-85
2021/03/15 09:50:26;;;;;;;10.27;1.58;;;10.90;99.90;;;;;;5029836;28;20045;-85
2021/03/15 09:52:52;;;;;;;10.73;1.92;;;11.00;99.90;;;;;;5015155;28;20049;-84
2021/03/15 09:55:19;;;;;;;16.10;2.42;;;11.10;99.90;;;;;;5011061;28;20080;-85
2021/03/15 09:57:46;;;;;;;15.13;2.30;;;11.10;99.90;;;;;;5015163;28;20049;-84
2021/03/15 10:00:16;;;;;;;13.27;2.38;;;11.20;99.90;;;;;;5026984;28;20069;-85
2021/03/15 10:02:46;;;;;;;10.60;2.40;;;11.20;99.90;;;;;;5016933;28;20045;-85
2021/03/15 10:05:20;;;;;;;15.02;2.05;;;11.30;99.90;;;;;;5009940;28;20119;-84
2021/03/15 10:07:48;;;;;;;6.97;2.10;;;11.40;99.90;;;;;;5003511;28;20084;-85
2021/03/15 10:10:19;;;;;;;15.07;1.80;;;11.40;99.90;;;;;;5014022;28;20061;-84
2021/03/15 10:12:49;;;;;;;5.85;1.48;;;11.50;99.90;;;;;;5013947;28;20518;-84
2021/03/15 10:15:17;;;;;;;14.25;2.00;;;11.50;99.90;;;;;;5030611;28;20050;-85
2021/03/15 10:17:45;;;;;;;7.50;1.52;;;11.60;99.90;;;;;;5004473;28;20038;-84
2021/03/15 10:20:34;;;;;;;11.32;1.90;;;11.60;99.90;;;;;;5010030;28;20072;-84
2021/03/15 10:23:15;;;;;;;8.50;2.35;;;11.70;99.90;;;;;;5029960;28;20120;-85
2021/03/15 10:26:03;;;;;;;11.00;2.30;;;11.70;99.90;;;;;;5013982;28;20046;-84
2021/03/15 10:28:32;;;;;;;9.82;1.77;;;11.70;99.90;;;;;;5009234;28;20073;-85
2021/03/15 10:31:13;;;;;;;6.60;1.80;;;11.70;99.90;;;;;;5019857;28;20060;-84
2021/03/15 10:33:45;;;;;;;8.38;1.60;;;11.80;99.90;;;;;;5017256;28;20471;-84
2021/03/15 10:36:16;;;;;;;7.72;1.65;;;11.90;99.90;;;;;;5030510;28;20809;-85
2021/03/15 10:38:42;;;;;;;8.02;1.60;;;12.00;99.90;;;;;;5015620;28;20051;-84
2021/03/15 10:41:10;;;;;;;5.38;1.23;;;12.00;99.90;;;;;;5021977;28;20065;-85
2021/03/15 10:43:37;;;;;;;7.45;1.30;;;12.10;99.90;;;;;;5014735;28;20045;-85
2021/03/15 10:46:22;;;;;;;4.10;1.17;;;12.10;99.90;;;;;;5014970;28;20076;-85
2021/03/15 10:48:48;;;;;;;4.80;1.38;;;12.20;99.90;;;;;;5009822;28;20096;-84
2021/03/15 10:51:15;;;;;;;5.78;1.63;;;12.10;99.90;;;;;;5011993;28;20144;-86
2021/03/15 10:53:52;;;;;;;5.97;1.30;;;12.10;99.90;;;;;;5011224;28;20045;-85
2021/03/15 10:56:20;;;;;;;5.60;1.15;;;12.10;99.90;;;;;;5007901;28;20080;-85
2021/03/15 10:58:48;;;;;;;8.90;1.50;;;12.20;99.90;;;;;;5012798;28;20061;-86
2021/03/15 11:01:24;;;;;;;4.68;1.17;;;12.30;99.90;;;;;;5005360;28;20041;-85
2021/03/15 11:03:54;;;;;;;8.20;1.35;;;12.40;99.90;;;;;;5011942;28;20127;-86
2021/03/15 11:06:27;;;;;;;13.60;1.92;;;12.40;99.90;;;;;;5011426;28;20088;-85
2021/03/15 11:08:55;;;;;;;5.45;1.10;;;12.40;99.90;;;;;;5011144;28;20049;-84
2021/03/15 11:11:33;;;;;;;6.90;1.60;;;12.40;99.90;;;;;;5013739;28;20045;-85
2021/03/15 11:14:07;;;;;;;5.43;1.48;;;12.30;99.90;;;;;;5010297;28;20049;-86
2021/03/15 11:16:35;;;;;;;8.10;1.42;;;12.40;99.90;;;;;;5011965;28;20044;-85
2021/03/15 11:19:05;;;;;;;7.88;1.88;;;12.40;99.90;;;;;;5010051;28;20081;-85
2021/03/15 11:21:34;;;;;;;4.90;1.33;;;12.30;99.90;;;;;;5011012;28;20041;-84
2021/03/15 11:24:00;;;;;;;7.10;1.67;;;12.20;99.90;;;;;;5010434;28;20049;-85
2021/03/15 11:26:27;;;;;;;6.93;1.48;;;12.20;99.90;;;;;;5007271;28;20053;-84
2021/03/15 11:28:57;;;;;;;8.25;2.00;;;12.10;99.90;;;;;;5022359;28;20111;-85
2021/03/15 11:31:29;;;;;;;9.20;1.70;;;12.10;99.90;;;;;;5010301;28;20380;-85
2021/03/15 11:33:58;;;;;;;10.50;1.73;;;12.10;99.90;;;;;;5009743;28;20041;-85
2021/03/15 11:36:26;;;;;;;;;;;12.20;99.90;;;;;;5011734;28;20050;-85
2021/03/15 11:38:57;;;;;;;5.57;1.38;;;12.30;99.90;;;;;;5007944;28;19921;-85
2021/03/15 11:41:29;;;;;;;10.07;1.52;;;12.40;99.90;;;;;;5012954;28;20430;-85
2021/03/15 11:43:56;;;;;;;9.85;1.90;;;12.50;99.90;;;;;;5014693;28;20478;-85
2021/03/15 11:46:22;;;;;;;5.63;1.40;;;12.50;99.90;;;;;;5009220;28;20041;-85
2021/03/15 11:48:50;;;;;;;9.88;2.20;;;12.60;99.90;;;;;;5011970;28;20056;-85
2021/03/15 11:51:18;;;;;;;10.90;1.75;;;12.70;99.90;;;;;;5029540;28;20463;-85
2021/03/15 11:53:46;;;;;;;7.57;2.00;;;12.70;99.90;;;;;;5013274;28;20060;-85
2021/03/15 11:56:14;;;;;;;7.90;1.45;;;12.80;99.90;;;;;;5011093;28;20175;-84
2021/03/15 11:58:41;;;;;;;9.70;2.35;;;12.80;99.90;;;;;;5012619;28;20479;-83
2021/03/15 12:01:08;;;;;;;7.55;1.92;;;12.80;99.90;;;;;;5019600;28;20049;-83
2021/03/15 12:03:35;;;;;;;9.38;1.80;;;12.90;99.90;;;;;;5009978;28;20629;-81
2021/03/15 12:06:03;;;;;;;10.02;1.85;;;12.90;99.90;;;;;;5006344;28;20064;-81
2021/03/15 12:08:31;;;;;;;10.68;1.65;;;13.00;99.90;;;;;;5020857;28;20052;-81
2021/03/15 12:10:58;;;;;;;12.80;2.08;;;13.00;99.90;;;;;;4982634;28;20047;-82
2021/03/15 12:13:26;;;;;;;8.38;1.70;;;13.00;99.90;;;;;;4988888;28;20041;-82
2021/03/15 12:15:53;;;;;;;9.13;1.93;;;13.00;99.90;;;;;;4990465;28;20085;-84
2021/03/15 12:18:20;;;;;;;12.32;1.92;;;13.10;99.90;;;;;;4991178;28;20042;-82
2021/03/15 12:20:47;;;;;;;11.70;1.98;;;13.10;99.90;;;;;;4992955;28;20049;-83
2021/03/15 12:23:13;;;;;;;11.55;2.15;;;13.20;99.90;;;;;;4989511;28;20041;-84
2021/03/15 12:25:40;;;;;;;6.90;1.65;;;13.10;99.90;;;;;;4985482;28;20094;-83
2021/03/15 12:28:09;;;;;;;8.77;1.70;;;13.00;99.90;;;;;;4989933;28;20124;-85
2021/03/15 12:30:37;;;;;;;13.38;1.98;;;13.10;99.90;;;;;;5001682;28;20132;-83
2021/03/15 12:33:23;;;;;;;7.77;1.90;;;13.10;99.90;;;;;;4999703;28;20116;-84
2021/03/15 12:35:50;;;;;;;16.35;2.30;;;13.20;99.90;;;;;;4998580;28;20054;-83
2021/03/15 12:38:17;;;;;;;10.32;1.60;;;13.20;99.90;;;;;;4994701;28;20061;-83
2021/03/15 12:40:44;;;;;;;8.80;1.63;;;13.20;99.90;;;;;;4997790;28;20052;-84
2021/03/15 12:43:10;;;;;;;9.05;1.88;;;13.10;99.90;;;;;;4993203;28;20146;-84
2021/03/15 12:45:49;;;;;;;8.77;2.03;;;13.10;99.90;;;;;;4998168;28;20050;-84
2021/03/15 12:48:16;;;;;;;10.05;1.55;;;13.20;99.90;;;;;;4995037;28;20124;-83
2021/03/15 12:50:43;;;;;;;11.65;2.20;;;13.20;99.90;;;;;;4998878;28;20050;-84
2021/03/15 12:53:11;;;;;;;7.00;1.98;;;13.20;99.90;;;;;;4998412;28;20037;-84
2021/03/15 12:55:37;;;;;;;10.63;2.22;;;13.10;99.90;;;;;;4999102;28;20042;-83
2021/03/15 12:58:04;;;;;;;10.63;2.20;;;13.00;99.90;;;;;;4994767;28;20495;-84
2021/03/15 13:00:30;;;;;;;9.57;2.03;;;12.90;99.90;;;;;;4998638;28;20049;-83
2021/03/15 13:02:57;;;;;;;9.35;2.10;;;13.00;99.90;;;;;;5001926;28;20042;-83
2021/03/15 13:05:24;;;;;;;12.15;2.40;;;13.00;99.90;;;;;;5002261;28;20041;-84